Time;durP1;ratioP1;P1;durP2;ratioP2;P2;SDS_P1;SDS_P2;PMS_P1;PMS_P2;Temp;Humidity;BMP_temperature;BMP_pressure;BME280_temperature;BME280_humidity;BME280_pressure;Samples;Min_cycle;Max_cycle;Signal;HPM_P1;HPM_P2
2022/04/18 00:00:23;;;;;;;23.83;13.05;;;;;;;;;;6265397;22;20022;-52
2022/04/18 00:02:48;;;;;;;26.60;12.73;;;;;;;;;;6266561;22;20027;-54
2022/04/18 00:05:13;;;;;;;21.90;13.35;;;;;;;;;;6265499;22;20464;-57
2022/04/18 00:07:39;;;;;;;22.77;13.45;;;;;;;;;;6266352;22;20027;-55
2022/04/18 00:10:04;;;;;;;26.55;13.65;;;;;;;;;;6267107;22;20604;-54
2022/04/18 00:12:30;;;;;;;27.38;14.40;;;;;;;;;;6263595;22;20023;-54
2022/04/18 00:14:55;;;;;;;25.55;13.25;;;;;;;;;;6267296;22;20097;-52
2022/04/18 00:17:21;;;;;;;25.67;12.93;;;;;;;;;;6264347;22;20027;-54
2022/04/18 00:19:46;;;;;;;27.95;13.60;;;;;;;;;;6266612;22;20039;-55
2022/04/18 00:22:11;;;;;;;25.17;13.80;;;;;;;;;;6264603;22;20012;-54
2022/04/18 00:24:36;;;;;;;20.90;12.95;;;;;;;;;;6267358;22;20026;-55
2022/04/18 00:27:02;;;;;;;27.33;13.38;;;;;;;;;;6265144;22;20007;-53
2022/04/18 00:29:27;;;;;;;32.35;16.70;;;;;;;;;;6266304;22;21257;-53
2022/04/18 00:31:52;;;;;;;26.90;16.38;;;;;;;;;;6264621;22;20050;-52
2022/04/18 00:34:18;;;;;;;28.45;16.15;;;;;;;;;;6266972;22;20022;-52
2022/04/18 00:36:45;;;;;;;26.63;15.77;;;;;;;;;;6263818;22;20016;-54
2022/04/18 00:39:10;;;;;;;28.55;15.93;;;;;;;;;;6264898;22;20011;-52
2022/04/18 00:41:35;;;;;;;32.65;15.55;;;;;;;;;;6264444;22;20355;-52
2022/04/18 00:44:02;;;;;;;29.52;17.55;;;;;;;;;;6267208;22;20023;-50
2022/04/18 00:46:27;;;;;;;31.98;15.93;;;;;;;;;;6264034;22;20019;-54
2022/04/18 00:48:53;;;;;;;29.85;16.98;;;;;;;;;;6267069;22;20257;-53
2022/04/18 00:51:22;;;;;;;33.00;18.15;;;;;;;;;;6263824;22;20035;-53
2022/04/18 00:53:48;;;;;;;36.60;17.40;;;;;;;;;;6267477;22;20093;-55
2022/04/18 00:56:16;;;;;;;28.45;19.17;;;;;;;;;;6262767;22;20016;-54
2022/04/18 00:58:41;;;;;;;31.58;16.88;;;;;;;;;;6266203;22;20059;-51
2022/04/18 01:01:07;;;;;;;33.25;19.00;;;;;;;;;;6266952;22;20038;-50
2022/04/18 01:03:32;;;;;;;32.28;17.67;;;;;;;;;;6264942;22;20023;-53
2022/04/18 01:05:59;;;;;;;31.38;17.23;;;;;;;;;;6265479;22;20032;-53
2022/04/18 01:08:25;;;;;;;32.35;17.98;;;;;;;;;;6262277;22;20099;-55
2022/04/18 01:10:51;;;;;;;34.03;19.63;;;;;;;;;;6265080;22;20514;-52
2022/04/18 01:13:16;;;;;;;31.02;17.85;;;;;;;;;;6264732;22;20022;-51
2022/04/18 01:15:41;;;;;;;36.22;17.80;;;;;;;;;;6265068;22;20016;-54
2022/04/18 01:18:07;;;;;;;32.90;17.88;;;;;;;;;;6266468;22;20012;-54
2022/04/18 01:20:36;;;;;;;37.72;18.48;;;;;;;;;;6263024;22;20020;-51
2022/04/18 01:23:04;;;;;;;33.53;18.38;;;;;;;;;;6266528;22;20075;-52
2022/04/18 01:30:57;;;;;;;34.35;17.05;;;;;;;;;;6268208;22;20010;-49
2022/04/18 01:33:23;;;;;;;30.33;16.30;;;;;;;;;;6260905;22;20374;-52
2022/04/18 01:35:48;;;;;;;27.75;14.68;;;;;;;;;;6266226;22;20509;-50
2022/04/18 01:38:13;;;;;;;27.83;14.98;;;;;;;;;;6266209;22;20035;-53
2022/04/18 01:40:39;;;;;;;25.60;14.40;;;;;;;;;;6257160;22;20024;-50
2022/04/18 01:43:04;;;;;;;28.27;13.05;;;;;;;;;;6265807;22;20576;-53
2022/04/18 01:45:30;;;;;;;24.58;13.07;;;;;;;;;;6265751;22;20091;-53
2022/04/18 01:47:55;;;;;;;25.80;12.63;;;;;;;;;;6265167;22;20029;-52
2022/04/18 01:50:20;;;;;;;19.95;10.77;;;;;;;;;;6267730;22;20023;-53
2022/04/18 01:52:45;;;;;;;21.52;11.48;;;;;;;;;;6268771;22;20008;-52
2022/04/18 01:55:11;;;;;;;21.40;11.27;;;;;;;;;;6267501;22;20007;-51
2022/04/18 01:57:36;;;;;;;18.35;10.05;;;;;;;;;;6267718;22;20024;-53
2022/04/18 02:00:01;;;;;;;20.70;8.82;;;;;;;;;;6268067;22;20039;-54
2022/04/18 02:02:27;;;;;;;11.80;7.20;;;;;;;;;;6267627;22;20087;-51
2022/04/18 02:04:52;;;;;;;16.02;7.72;;;;;;;;;;6267739;22;20035;-53
2022/04/18 02:07:17;;;;;;;10.63;6.60;;;;;;;;;;6268353;22;20497;-53
2022/04/18 02:09:43;;;;;;;12.60;6.75;;;;;;;;;;6267578;22;20019;-53
2022/04/18 02:12:08;;;;;;;13.63;7.18;;;;;;;;;;6269094;22;20107;-53
2022/04/18 02:14:34;;;;;;;12.45;7.32;;;;;;;;;;6267554;22;20015;-51
2022/04/18 02:16:59;;;;;;;20.10;8.05;;;;;;;;;;6268064;22;20008;-52
2022/04/18 02:19:24;;;;;;;15.82;8.65;;;;;;;;;;6267904;22;20470;-52
2022/04/18 02:21:50;;;;;;;18.55;8.90;;;;;;;;;;6266699;22;20035;-53
2022/04/18 02:24:15;;;;;;;15.40;8.38;;;;;;;;;;6267759;22;20004;-54
2022/04/18 02:26:40;;;;;;;15.07;7.70;;;;;;;;;;6268450;22;20015;-54
2022/04/18 02:29:06;;;;;;;19.10;8.15;;;;;;;;;;6268922;22;20012;-53
2022/04/18 02:31:31;;;;;;;23.75;8.70;;;;;;;;;;6266874;22;20711;-53
2022/04/18 02:33:56;;;;;;;19.35;7.93;;;;;;;;;;6269070;22;20018;-50
2022/04/18 02:36:21;;;;;;;19.65;9.15;;;;;;;;;;6267701;22;20012;-53
2022/04/18 02:38:47;;;;;;;22.30;8.30;;;;;;;;;;6268202;22;20007;-51
2022/04/18 02:41:12;;;;;;;15.48;8.07;;;;;;;;;;6266605;22;20090;-54
2022/04/18 02:43:37;;;;;;;14.45;8.18;;;;;;;;;;6268651;22;20019;-53
2022/04/18 02:46:02;;;;;;;16.75;6.70;;;;;;;;;;6266731;22;20012;-51
2022/04/18 02:48:31;;;;;;;14.23;7.03;;;;;;;;;;6266823;22;20023;-51
2022/04/18 02:50:57;;;;;;;11.52;5.43;;;;;;;;;;6268000;22;20027;-52
2022/04/18 02:53:22;;;;;;;7.10;3.67;;;;;;;;;;6265978;22;20007;-51
2022/04/18 02:55:47;;;;;;;8.68;5.47;;;;;;;;;;6268039;22;20570;-49
2022/04/18 02:58:12;;;;;;;10.10;4.65;;;;;;;;;;6267689;22;20142;-50
2022/04/18 03:00:38;;;;;;;21.35;4.78;;;;;;;;;;6267497;22;20831;-54
2022/04/18 03:03:03;;;;;;;8.80;4.63;;;;;;;;;;6267941;22;20018;-50
2022/04/18 03:05:28;;;;;;;12.15;5.78;;;;;;;;;;6267478;22;20019;-53
2022/04/18 03:07:54;;;;;;;15.60;6.63;;;;;;;;;;6268104;22;20041;-54
2022/04/18 03:11:02;;;;;;;19.35;9.35;;;;;;;;;;6267971;22;20016;-51
2022/04/18 03:13:04;;;;;;;16.85;8.23;;;;;;;;;;6267514;22;20012;-53
2022/04/18 03:15:30;;;;;;;11.38;6.85;;;;;;;;;;6266833;22;20061;-54
2022/04/18 03:17:55;;;;;;;13.23;6.45;;;;;;;;;;6268033;22;20600;-52
2022/04/18 03:20:21;;;;;;;13.18;4.85;;;;;;;;;;6265400;22;20051;-50
2022/04/18 03:22:46;;;;;;;11.77;5.68;;;;;;;;;;6268221;22;20004;-53
2022/04/18 03:25:11;;;;;;;13.43;4.03;;;;;;;;;;6265316;22;20011;-54
2022/04/18 03:27:36;;;;;;;8.07;2.85;;;;;;;;;;6267534;22;20090;-53
2022/04/18 03:30:02;;;;;;;8.35;2.55;;;;;;;;;;6267311;22;20008;-55
2022/04/18 03:32:27;;;;;;;5.38;3.10;;;;;;;;;;6266669;22;20007;-53
2022/04/18 03:34:53;;;;;;;7.30;2.60;;;;;;;;;;6266912;22;20016;-53
2022/04/18 03:40:02;;;;;;;12.93;2.88;;;;;;;;;;6267418;22;20116;-50
2022/04/18 03:42:31;;;;;;;14.10;2.22;;;;;;;;;;6262969;22;20264;-52
2022/04/18 03:44:58;;;;;;;3.70;1.65;;;;;;;;;;6267822;22;20011;-53
2022/04/18 03:47:24;;;;;;;20.38;2.70;;;;;;;;;;6265514;22;20008;-54
2022/04/18 03:49:49;;;;;;;6.68;2.13;;;;;;;;;;6268304;22;20063;-53
2022/04/18 03:52:14;;;;;;;7.38;2.75;;;;;;;;;;6266542;22;20007;-50
2022/04/18 03:54:40;;;;;;;11.80;2.22;;;;;;;;;;6265299;22;20011;-50
2022/04/18 03:57:06;;;;;;;7.75;2.58;;;;;;;;;;6267519;22;20015;-54
2022/04/18 03:59:32;;;;;;;7.40;2.15;;;;;;;;;;6266076;22;20695;-53
2022/04/18 04:01:57;;;;;;;17.38;2.72;;;;;;;;;;6267676;22;20016;-53
2022/04/18 04:04:22;;;;;;;11.80;2.17;;;;;;;;;;6266259;22;20003;-51
2022/04/18 04:06:48;;;;;;;10.93;1.88;;;;;;;;;;6268061;22;20007;-53
2022/04/18 04:09:13;;;;;;;6.88;2.47;;;;;;;;;;6266885;22;20179;-53
2022/04/18 04:11:38;;;;;;;5.32;2.28;;;;;;;;;;6265087;22;20007;-53
2022/04/18 04:14:04;;;;;;;11.38;3.55;;;;;;;;;;6266955;22;20390;-54
2022/04/18 04:16:29;;;;;;;10.57;2.20;;;;;;;;;;6266425;22;20316;-53
2022/04/18 04:18:54;;;;;;;15.73;2.60;;;;;;;;;;6267237;22;20011;-53
2022/04/18 04:21:19;;;;;;;13.10;2.65;;;;;;;;;;6266454;22;20019;-53
2022/04/18 04:23:45;;;;;;;10.38;2.63;;;;;;;;;;6264202;22;20037;-50
2022/04/18 04:26:10;;;;;;;6.57;2.42;;;;;;;;;;6267264;22;20012;-52
2022/04/18 04:28:35;;;;;;;10.05;2.25;;;;;;;;;;6265679;22;20347;-54
2022/04/18 04:31:03;;;;;;;7.72;2.88;;;;;;;;;;6267845;22;20003;-49
2022/04/18 04:33:30;;;;;;;7.75;3.55;;;;;;;;;;6265811;22;20028;-52
2022/04/18 04:35:56;;;;;;;8.77;2.42;;;;;;;;;;6266415;22;20057;-55
2022/04/18 04:38:21;;;;;;;11.48;3.60;;;;;;;;;;6265935;22;20011;-49
2022/04/18 04:40:48;;;;;;;9.10;2.35;;;;;;;;;;6265836;22;20339;-53
2022/04/18 04:43:13;;;;;;;21.33;3.50;;;;;;;;;;6266580;22;20012;-49
2022/04/18 04:45:38;;;;;;;12.07;2.72;;;;;;;;;;6265370;22;20032;-54
2022/04/18 04:48:04;;;;;;;12.35;3.63;;;;;;;;;;6267121;22;20004;-52
2022/04/18 04:50:31;;;;;;;10.10;2.75;;;;;;;;;;6265326;22;20035;-54
2022/04/18 04:52:57;;;;;;;13.05;2.88;;;;;;;;;;6266442;22;20004;-54
2022/04/18 04:55:22;;;;;;;13.40;3.17;;;;;;;;;;6265711;22;20034;-54
2022/04/18 04:57:47;;;;;;;15.40;2.95;;;;;;;;;;6267252;22;20007;-52
2022/04/18 05:00:13;;;;;;;8.30;3.13;;;;;;;;;;6267001;22;20425;-53
2022/04/18 05:02:38;;;;;;;7.13;2.22;;;;;;;;;;6265773;22;20612;-52
2022/04/18 05:05:04;;;;;;;8.20;2.72;;;;;;;;;;6266720;22;20015;-53
2022/04/18 05:07:29;;;;;;;6.75;2.63;;;;;;;;;;6265327;22;20074;-54
2022/04/18 05:09:55;;;;;;;7.93;2.17;;;;;;;;;;6267462;22;20004;-53
2022/04/18 05:12:20;;;;;;;6.30;2.58;;;;;;;;;;6264689;22;20087;-52
2022/04/18 05:14:45;;;;;;;19.27;4.63;;;;;;;;;;6266778;22;20004;-54
2022/04/18 05:17:11;;;;;;;8.68;2.92;;;;;;;;;;6266043;22;20063;-51
2022/04/18 05:19:36;;;;;;;6.85;3.30;;;;;;;;;;6266956;22;20004;-49
2022/04/18 05:22:01;;;;;;;12.73;4.40;;;;;;;;;;6263971;22;20008;-53
2022/04/18 05:24:26;;;;;;;11.23;2.42;;;;;;;;;;6268255;22;20130;-52
2022/04/18 05:26:52;;;;;;;14.27;3.25;;;;;;;;;;6267931;22;20011;-54
2022/04/18 05:29:17;;;;;;;15.23;2.63;;;;;;;;;;6267621;22;20008;-50
2022/04/18 05:31:42;;;;;;;15.15;4.47;;;;;;;;;;6267128;22;20087;-54
2022/04/18 05:34:07;;;;;;;6.15;3.17;;;;;;;;;;6269243;22;20015;-53
2022/04/18 05:36:33;;;;;;;5.82;3.58;;;;;;;;;;6267453;22;20442;-55
2022/04/18 05:38:58;;;;;;;13.93;2.88;;;;;;;;;;6267836;22;20015;-55
2022/04/18 05:41:23;;;;;;;11.45;2.95;;;;;;;;;;6267404;22;20019;-53
2022/04/18 05:43:49;;;;;;;13.65;3.30;;;;;;;;;;6269012;22;20034;-53
2022/04/18 05:46:15;;;;;;;9.95;3.35;;;;;;;;;;6267101;22;20042;-54
2022/04/18 05:48:40;;;;;;;14.38;3.28;;;;;;;;;;6268574;22;20067;-55
2022/04/18 05:51:06;;;;;;;10.70;3.03;;;;;;;;;;6264969;22;20016;-54
2022/04/18 05:53:31;;;;;;;12.48;3.85;;;;;;;;;;6265803;22;20019;-55
2022/04/18 05:55:56;;;;;;;9.73;3.00;;;;;;;;;;6266331;22;20000;-54
2022/04/18 05:58:21;;;;;;;11.57;2.40;;;;;;;;;;6267045;22;20361;-56
2022/04/18 06:00:47;;;;;;;11.85;3.70;;;;;;;;;;6267029;22;20089;-54
2022/04/18 06:03:12;;;;;;;13.90;3.03;;;;;;;;;;6267233;22;20008;-54
2022/04/18 06:05:37;;;;;;;12.45;2.88;;;;;;;;;;6267312;22;20003;-52
2022/04/18 06:08:03;;;;;;;10.10;3.10;;;;;;;;;;6266901;22;20010;-55
2022/04/18 06:10:29;;;;;;;20.85;3.22;;;;;;;;;;6267071;22;20007;-52
2022/04/18 06:12:55;;;;;;;15.00;3.35;;;;;;;;;;6267083;22;20014;-56
2022/04/18 06:15:20;;;;;;;8.40;4.18;;;;;;;;;;6267914;22;20019;-54
2022/04/18 06:17:45;;;;;;;8.02;3.17;;;;;;;;;;6266718;22;20431;-55
2022/04/18 06:20:11;;;;;;;12.77;3.15;;;;;;;;;;6268120;22;20016;-55
2022/04/18 06:22:36;;;;;;;20.92;5.43;;;;;;;;;;6264510;22;20004;-54
2022/04/18 06:25:01;;;;;;;11.45;4.60;;;;;;;;;;6267922;22;20088;-52
2022/04/18 06:27:26;;;;;;;15.75;4.00;;;;;;;;;;6264619;22;20015;-52
2022/04/18 06:29:52;;;;;;;18.63;4.70;;;;;;;;;;6268117;22;20011;-51
2022/04/18 06:32:17;;;;;;;11.80;3.47;;;;;;;;;;6265112;22;20027;-53
2022/04/18 06:34:42;;;;;;;12.82;4.22;;;;;;;;;;6267450;22;20008;-52
2022/04/18 06:37:08;;;;;;;12.65;3.38;;;;;;;;;;6266697;22;20015;-54
2022/04/18 06:39:34;;;;;;;25.25;3.83;;;;;;;;;;6264663;22;20020;-56
2022/04/18 06:42:00;;;;;;;14.50;3.97;;;;;;;;;;6268024;22;20015;-54
2022/04/18 06:44:25;;;;;;;7.85;3.35;;;;;;;;;;6264374;22;20436;-54
2022/04/18 06:46:50;;;;;;;14.02;2.83;;;;;;;;;;6267115;22;20059;-52
2022/04/18 06:49:16;;;;;;;13.05;3.05;;;;;;;;;;6265702;22;20330;-55
2022/04/18 06:51:41;;;;;;;7.88;2.72;;;;;;;;;;6266534;22;20026;-54
2022/04/18 06:54:06;;;;;;;10.18;3.08;;;;;;;;;;6267391;22;20007;-54
2022/04/18 06:59:15;;;;;;;9.93;3.22;;;;;;;;;;6265765;22;20073;-55
2022/04/18 07:01:41;;;;;;;9.55;4.40;;;;;;;;;;6267140;22;20012;-54
2022/04/18 07:04:07;;;;;;;13.00;3.22;;;;;;;;;;6264568;22;20376;-55
2022/04/18 07:06:32;;;;;;;12.68;3.20;;;;;;;;;;6266111;22;20034;-54
2022/04/18 07:08:57;;;;;;;9.60;3.92;;;;;;;;;;6267113;22;20461;-56
2022/04/18 07:11:23;;;;;;;26.17;4.53;;;;;;;;;;6265587;22;20637;-55
2022/04/18 07:13:48;;;;;;;12.70;3.85;;;;;;;;;;6266676;22;20008;-53
2022/04/18 07:16:13;;;;;;;14.93;3.70;;;;;;;;;;6266102;22;20008;-54
2022/04/18 07:18:39;;;;;;;12.77;4.53;;;;;;;;;;6267022;22;20012;-55
2022/04/18 07:21:04;;;;;;;23.67;6.93;;;;;;;;;;6266671;22;20114;-52
2022/04/18 07:23:29;;;;;;;11.68;3.63;;;;;;;;;;6266321;22;20069;-53
2022/04/18 07:25:55;;;;;;;15.93;3.28;;;;;;;;;;6266977;22;20011;-55
2022/04/18 07:28:20;;;;;;;15.88;4.38;;;;;;;;;;6267039;22;20906;-55
2022/04/18 07:30:46;;;;;;;13.13;4.32;;;;;;;;;;6265746;22;20034;-56
2022/04/18 07:33:14;;;;;;;14.32;4.10;;;;;;;;;;6264182;22;20007;-54
2022/04/18 07:35:39;;;;;;;19.00;5.65;;;;;;;;;;6266551;22;20018;-55
2022/04/18 07:40:48;;;;;;;17.50;5.60;;;;;;;;;;6264516;22;20026;-55
2022/04/18 07:43:13;;;;;;;18.17;4.95;;;;;;;;;;6266500;22;20481;-55
2022/04/18 07:45:38;;;;;;;15.48;3.92;;;;;;;;;;6264654;22;20582;-55
2022/04/18 07:48:05;;;;;;;17.52;4.53;;;;;;;;;;6266517;22;20011;-55
2022/04/18 07:53:15;;;;;;;14.05;4.45;;;;;;;;;;6232035;22;20004;-56
2022/04/18 07:55:41;;;;;;;15.00;4.75;;;;;;;;;;6266111;22;20019;-56
2022/04/18 07:58:06;;;;;;;22.65;5.53;;;;;;;;;;6266002;22;20015;-55
2022/04/18 08:00:31;;;;;;;19.58;5.05;;;;;;;;;;6266241;22;20090;-53
2022/04/18 08:02:56;;;;;;;27.00;5.57;;;;;;;;;;6266254;22;20004;-55
2022/04/18 08:05:22;;;;;;;15.52;5.85;;;;;;;;;;6265161;22;20008;-55
2022/04/18 08:07:47;;;;;;;11.93;5.47;;;;;;;;;;6265523;22;20012;-55
2022/04/18 08:10:12;;;;;;;14.55;5.45;;;;;;;;;;6266893;22;20012;-52
2022/04/18 08:12:38;;;;;;;17.70;6.20;;;;;;;;;;6262952;22;20346;-54
2022/04/18 08:15:04;;;;;;;11.65;5.85;;;;;;;;;;6266677;22;20007;-55
2022/04/18 08:17:30;;;;;;;12.13;5.05;;;;;;;;;;6264926;22;20084;-52
2022/04/18 08:19:55;;;;;;;20.33;5.93;;;;;;;;;;6266618;22;20366;-53
2022/04/18 08:22:20;;;;;;;17.13;5.60;;;;;;;;;;6265081;22;20080;-56
2022/04/18 08:24:46;;;;;;;18.05;6.13;;;;;;;;;;6266281;22;20008;-54
2022/04/18 08:27:11;;;;;;;23.35;4.82;;;;;;;;;;6265488;22;20086;-55
2022/04/18 08:29:37;;;;;;;20.90;6.43;;;;;;;;;;6265572;22;20008;-54
2022/04/18 08:32:02;;;;;;;13.05;5.32;;;;;;;;;;6265303;22;20008;-55
2022/04/18 08:34:28;;;;;;;11.77;5.63;;;;;;;;;;6265224;22;20018;-54
2022/04/18 08:36:53;;;;;;;14.82;4.68;;;;;;;;;;6266092;22;20012;-53
2022/04/18 08:39:18;;;;;;;15.48;5.70;;;;;;;;;;6263976;22;20067;-54
2022/04/18 08:41:45;;;;;;;14.45;4.65;;;;;;;;;;6266242;22;20023;-54
2022/04/18 08:44:11;;;;;;;15.52;4.95;;;;;;;;;;6264380;22;20011;-55
2022/04/18 08:46:37;;;;;;;12.80;5.55;;;;;;;;;;6265300;22;20008;-53
2022/04/18 08:54:30;;;;;;;15.68;5.03;;;;;;;;;;6264356;22;20026;-56
2022/04/18 08:56:56;;;;;;;14.35;4.78;;;;;;;;;;6266272;22;20019;-55
2022/04/18 08:59:22;;;;;;;10.77;4.80;;;;;;;;;;6263926;22;20012;-53
2022/04/18 09:01:50;;;;;;;15.55;5.57;;;;;;;;;;6265702;22;20016;-54
2022/04/18 09:04:15;;;;;;;14.02;4.93;;;;;;;;;;6265475;22;20042;-57
2022/04/18 09:06:41;;;;;;;15.50;5.07;;;;;;;;;;6265839;22;20004;-55
2022/04/18 09:09:06;;;;;;;16.20;5.78;;;;;;;;;;6265780;22;20023;-56
2022/04/18 09:11:40;;;;;;;19.52;5.18;;;;;;;;;;6264568;22;20026;-56
2022/04/18 09:14:09;;;;;;;19.83;5.35;;;;;;;;;;6264653;22;20019;-56
2022/04/18 09:16:35;;;;;;;10.15;4.80;;;;;;;;;;6265049;22;20011;-56
2022/04/18 09:19:05;;;;;;;18.35;6.32;;;;;;;;;;6265874;22;20015;-52
2022/04/18 09:21:31;;;;;;;9.93;3.88;;;;;;;;;;6264792;22;20019;-55
2022/04/18 09:23:56;;;;;;;17.83;4.45;;;;;;;;;;6265463;22;20004;-54
2022/04/18 09:26:22;;;;;;;15.32;4.85;;;;;;;;;;6265304;22;20016;-54
2022/04/18 09:28:47;;;;;;;20.85;4.30;;;;;;;;;;6265182;22;20445;-52
2022/04/18 09:31:13;;;;;;;17.83;4.78;;;;;;;;;;6265445;22;20014;-54
2022/04/18 09:33:46;;;;;;;13.43;4.13;;;;;;;;;;6264710;22;20063;-52
2022/04/18 09:36:12;;;;;;;11.68;4.00;;;;;;;;;;6265178;22;20001;-53
2022/04/18 09:38:38;;;;;;;7.63;3.90;;;;;;;;;;6265340;22;20271;-55
2022/04/18 09:41:04;;;;;;;10.20;3.88;;;;;;;;;;6264384;22;20023;-54
2022/04/18 09:43:37;;;;;;;15.32;4.15;;;;;;;;;;6265222;22;20581;-53
2022/04/18 09:46:02;;;;;;;15.00;4.55;;;;;;;;;;6263955;22;20319;-52
2022/04/18 09:48:31;;;;;;;13.15;3.92;;;;;;;;;;6264244;22;20052;-54
2022/04/18 09:50:59;;;;;;;13.18;4.57;;;;;;;;;;6265251;22;20031;-55
2022/04/18 09:53:24;;;;;;;9.32;3.90;;;;;;;;;;6264253;22;20015;-55
2022/04/18 09:55:50;;;;;;;9.50;3.20;;;;;;;;;;6265510;22;20007;-55
2022/04/18 09:58:16;;;;;;;14.05;3.75;;;;;;;;;;6264392;22;20090;-54
2022/04/18 10:00:41;;;;;;;12.50;4.68;;;;;;;;;;6265335;22;20023;-54
2022/04/18 10:03:07;;;;;;;13.77;3.72;;;;;;;;;;6265272;22;20035;-56
2022/04/18 10:05:33;;;;;;;10.13;3.05;;;;;;;;;;6264388;22;20011;-55
2022/04/18 10:08:03;;;;;;;13.93;4.70;;;;;;;;;;6264076;22;20018;-54
2022/04/18 10:10:28;;;;;;;;;;;;;;;;;;6266604;22;20026;-53
2022/04/18 10:12:54;;;;;;;10.50;3.17;;;;;;;;;;6265363;22;19904;-55
2022/04/18 10:15:19;;;;;;;9.70;3.88;;;;;;;;;;6265426;22;20000;-55
2022/04/18 10:17:44;;;;;;;8.77;2.35;;;;;;;;;;6266002;22;20008;-56
2022/04/18 10:20:10;;;;;;;11.25;3.08;;;;;;;;;;6267356;22;20020;-57
2022/04/18 10:22:35;;;;;;;11.23;3.70;;;;;;;;;;6263620;22;20015;-56
2022/04/18 10:25:06;;;;;;;9.27;3.30;;;;;;;;;;6268143;22;20037;-57
2022/04/18 10:27:51;;;;;;;10.55;3.35;;;;;;;;;;6266110;22;20020;-55
2022/04/18 10:30:16;;;;;;;11.05;3.97;;;;;;;;;;6265620;22;20015;-51
2022/04/18 10:32:42;;;;;;;10.23;2.80;;;;;;;;;;6267171;22;20008;-55
2022/04/18 10:35:07;;;;;;;11.38;3.67;;;;;;;;;;6266596;22;20026;-55
2022/04/18 10:37:32;;;;;;;15.98;3.47;;;;;;;;;;6265613;22;20004;-55
2022/04/18 10:39:59;;;;;;;10.20;2.70;;;;;;;;;;6266563;22;20016;-55
2022/04/18 10:42:27;;;;;;;6.72;2.95;;;;;;;;;;6266548;22;20035;-55
2022/04/18 10:45:19;;;;;;;6.50;2.42;;;;;;;;;;6266953;22;20011;-54
2022/04/18 10:48:00;;;;;;;3.08;2.22;;;;;;;;;;6257644;22;20008;-56
2022/04/18 10:50:44;;;;;;;8.40;3.03;;;;;;;;;;6265855;22;20016;-55
2022/04/18 10:53:09;;;;;;;8.70;2.83;;;;;;;;;;6266307;22;20031;-53
2022/04/18 10:55:36;;;;;;;15.38;2.47;;;;;;;;;;6266929;22;20012;-54
2022/04/18 10:58:12;;;;;;;4.88;2.60;;;;;;;;;;6266792;22;20012;-53
2022/04/18 11:00:52;;;;;;;4.70;1.88;;;;;;;;;;6267409;22;20059;-52
2022/04/18 11:03:36;;;;;;;3.88;1.63;;;;;;;;;;6266107;22;20060;-53
2022/04/18 11:06:21;;;;;;;10.85;2.92;;;;;;;;;;6266514;22;20079;-52
2022/04/18 11:08:57;;;;;;;10.20;3.42;;;;;;;;;;6267521;22;20015;-52
2022/04/18 11:11:23;;;;;;;10.00;2.78;;;;;;;;;;6265785;22;20011;-53
2022/04/18 11:13:49;;;;;;;8.48;2.38;;;;;;;;;;6266717;22;20086;-53
2022/04/18 11:16:23;;;;;;;6.07;2.80;;;;;;;;;;6266171;22;20692;-54
2022/04/18 11:19:07;;;;;;;30.98;3.17;;;;;;;;;;6266733;22;20018;-53
2022/04/18 11:21:51;;;;;;;7.57;2.33;;;;;;;;;;6266509;22;20027;-54
2022/04/18 11:24:35;;;;;;;3.53;1.73;;;;;;;;;;6266350;22;20145;-54
2022/04/18 11:27:01;;;;;;;5.10;1.85;;;;;;;;;;6266467;22;20012;-55
2022/04/18 11:29:27;;;;;;;7.28;1.83;;;;;;;;;;6265960;22;20011;-52
2022/04/18 11:31:52;;;;;;;8.80;1.98;;;;;;;;;;6265369;22;20433;-53
2022/04/18 11:34:18;;;;;;;6.55;2.28;;;;;;;;;;6266369;22;20011;-56
2022/04/18 11:36:43;;;;;;;6.93;2.30;;;;;;;;;;6266478;22;20063;-53
2022/04/18 11:39:10;;;;;;;9.68;3.70;;;;;;;;;;6264764;22;20003;-55
2022/04/18 11:41:35;;;;;;;7.53;2.13;;;;;;;;;;6265709;22;20012;-54
2022/04/18 11:44:02;;;;;;;9.93;2.53;;;;;;;;;;6265132;22;20072;-54
2022/04/18 11:46:30;;;;;;;9.50;2.22;;;;;;;;;;6265451;22;20008;-53
2022/04/18 11:48:55;;;;;;;9.27;2.50;;;;;;;;;;6265869;22;20402;-53
2022/04/18 11:51:37;;;;;;;7.97;2.75;;;;;;;;;;6265019;22;20031;-55
2022/04/18 11:54:02;;;;;;;4.57;2.30;;;;;;;;;;6266373;22;20023;-54
2022/04/18 11:56:28;;;;;;;11.57;2.53;;;;;;;;;;6265026;22;20217;-55
2022/04/18 11:58:53;;;;;;;7.35;2.67;;;;;;;;;;6264819;22;20018;-53
2022/04/18 12:06:49;;;;;;;22.85;9.45;;;;;;;;;;6266032;22;20041;-53
2022/04/18 12:09:15;;;;;;;9.57;2.55;;;;;;;;;;6265056;22;20004;-52
2022/04/18 12:11:41;;;;;;;7.93;2.08;;;;;;;;;;6266662;22;20023;-57
2022/04/18 12:14:06;;;;;;;3.97;2.10;;;;;;;;;;6263738;22;20007;-53
2022/04/18 12:16:35;;;;;;;4.07;1.80;;;;;;;;;;6265637;22;20019;-55
2022/04/18 12:19:01;;;;;;;7.68;1.75;;;;;;;;;;6266090;22;20031;-54
2022/04/18 12:21:27;;;;;;;6.93;1.95;;;;;;;;;;6266127;22;20224;-54
2022/04/18 12:23:57;;;;;;;7.90;1.60;;;;;;;;;;6263579;22;20030;-54
2022/04/18 12:26:23;;;;;;;4.70;2.17;;;;;;;;;;6265330;22;20046;-51
2022/04/18 12:28:49;;;;;;;7.20;2.30;;;;;;;;;;6266016;22;20008;-55
2022/04/18 12:31:14;;;;;;;10.45;1.85;;;;;;;;;;6265146;22;20058;-54
2022/04/18 12:33:47;;;;;;;2.90;1.27;;;;;;;;;;6265157;22;20011;-54
2022/04/18 12:36:41;;;;;;;9.07;1.67;;;;;;;;;;6265750;22;20061;-55
2022/04/18 12:39:18;;;;;;;5.13;1.67;;;;;;;;;;6243769;22;20007;-54
2022/04/18 12:41:43;;;;;;;13.48;2.00;;;;;;;;;;6265463;22;20047;-55
2022/04/18 12:44:12;;;;;;;3.67;2.08;;;;;;;;;;6264434;22;20153;-55
2022/04/18 12:46:38;;;;;;;5.50;1.30;;;;;;;;;;6265318;22;20083;-54
2022/04/18 12:49:04;;;;;;;9.13;1.90;;;;;;;;;;6265348;22;20015;-54
2022/04/18 12:51:33;;;;;;;5.32;1.50;;;;;;;;;;6263659;22;20099;-52
2022/04/18 12:53:58;;;;;;;4.43;1.52;;;;;;;;;;6264624;22;20008;-52
2022/04/18 12:56:25;;;;;;;6.47;2.15;;;;;;;;;;6264369;22;20008;-54
2022/04/18 12:58:53;;;;;;;4.15;1.58;;;;;;;;;;6265983;22;20035;-54
2022/04/18 13:01:22;;;;;;;8.55;1.70;;;;;;;;;;6264252;22;20026;-54
2022/04/18 13:03:48;;;;;;;7.22;2.85;;;;;;;;;;6266377;22;20004;-55
2022/04/18 13:06:20;;;;;;;8.38;1.90;;;;;;;;;;6264592;22;20102;-56
2022/04/18 13:08:46;;;;;;;8.48;2.22;;;;;;;;;;6262006;22;20071;-54
2022/04/18 13:11:11;;;;;;;4.40;1.50;;;;;;;;;;6264523;22;20012;-55
2022/04/18 13:13:36;;;;;;;3.38;1.40;;;;;;;;;;6265184;22;20007;-53
2022/04/18 13:16:21;;;;;;;11.45;2.38;;;;;;;;;;6264254;22;20335;-56
2022/04/18 13:18:46;;;;;;;6.88;2.10;;;;;;;;;;6264700;22;20012;-55
2022/04/18 13:21:12;;;;;;;8.00;1.58;;;;;;;;;;6265917;22;20027;-57
2022/04/18 13:23:37;;;;;;;5.07;1.73;;;;;;;;;;6265273;22;20015;-55
2022/04/18 13:26:02;;;;;;;4.75;1.70;;;;;;;;;;6265814;22;20012;-55
2022/04/18 13:28:28;;;;;;;6.90;1.92;;;;;;;;;;6264155;22;20015;-57
2022/04/18 13:30:53;;;;;;;5.05;1.88;;;;;;;;;;6265706;22;20477;-55
2022/04/18 13:33:18;;;;;;;8.60;1.58;;;;;;;;;;6264346;22;20008;-55
2022/04/18 13:38:27;;;;;;;10.00;2.00;;;;;;;;;;6265132;22;20014;-55
2022/04/18 13:40:53;;;;;;;6.20;1.60;;;;;;;;;;6265778;22;20019;-56
2022/04/18 13:43:19;;;;;;;3.35;1.02;;;;;;;;;;6264275;22;20629;-53
2022/04/18 13:45:44;;;;;;;6.82;1.80;;;;;;;;;;6268205;22;20035;-54
2022/04/18 13:48:10;;;;;;;5.00;1.25;;;;;;;;;;6266964;22;20018;-55
2022/04/18 13:50:36;;;;;;;7.75;2.35;;;;;;;;;;6266629;22;20016;-55
2022/04/18 13:53:01;;;;;;;6.88;2.35;;;;;;;;;;6266977;22;20016;-54
2022/04/18 13:55:27;;;;;;;10.05;1.55;;;;;;;;;;6266006;22;20008;-55
2022/04/18 13:57:52;;;;;;;4.05;1.52;;;;;;;;;;6264944;22;20017;-55
2022/04/18 14:00:18;;;;;;;3.85;1.20;;;;;;;;;;6266877;22;20030;-54
2022/04/18 14:02:43;;;;;;;9.18;4.05;;;;;;;;;;6267302;22;20428;-54
2022/04/18 14:05:08;;;;;;;4.85;1.33;;;;;;;;;;6267592;22;20043;-55
2022/04/18 14:07:34;;;;;;;6.88;1.88;;;;;;;;;;6265787;22;20355;-57
2022/04/18 14:09:59;;;;;;;27.75;15.60;;;;;;;;;;6267417;22;20071;-57
2022/04/18 14:12:25;;;;;;;3.65;1.58;;;;;;;;;;6265251;22;20359;-57
2022/04/18 14:20:21;;;;;;;6.95;1.63;;;;;;;;;;6266057;22;20034;-56
2022/04/18 14:22:46;;;;;;;3.47;1.42;;;;;;;;;;6267919;22;20008;-56
2022/04/18 14:25:11;;;;;;;5.28;1.77;;;;;;;;;;6267143;22;20016;-55
2022/04/18 14:27:37;;;;;;;8.38;1.58;;;;;;;;;;6266361;22;20012;-56
2022/04/18 14:30:02;;;;;;;3.38;1.90;;;;;;;;;;6266483;22;20008;-52
2022/04/18 14:32:27;;;;;;;2.83;1.08;;;;;;;;;;6264885;22;20011;-56
2022/04/18 14:34:53;;;;;;;3.97;0.95;;;;;;;;;;6266766;22;20019;-57
2022/04/18 14:37:20;;;;;;;5.68;1.17;;;;;;;;;;6265453;22;20008;-56
2022/04/18 14:39:45;;;;;;;4.38;1.35;;;;;;;;;;6267265;22;20008;-56
2022/04/18 14:42:10;;;;;;;2.65;0.98;;;;;;;;;;6265612;22;20020;-56
2022/04/18 14:44:36;;;;;;;4.60;1.52;;;;;;;;;;6266179;22;20059;-56
2022/04/18 14:47:01;;;;;;;6.97;1.45;;;;;;;;;;6266940;22;20027;-55
2022/04/18 14:49:26;;;;;;;4.75;1.50;;;;;;;;;;6266143;22;20007;-55
2022/04/18 14:51:52;;;;;;;7.10;1.55;;;;;;;;;;6266771;22;20023;-56
2022/04/18 14:54:17;;;;;;;3.10;1.02;;;;;;;;;;6265025;22;20370;-55
2022/04/18 14:56:42;;;;;;;3.67;1.08;;;;;;;;;;6266924;22;20008;-54
2022/04/18 14:59:07;;;;;;;3.80;1.55;;;;;;;;;;6268066;22;20008;-54
2022/04/18 15:01:33;;;;;;;4.40;1.27;;;;;;;;;;6265553;22;20020;-56
2022/04/18 15:03:58;;;;;;;4.70;1.35;;;;;;;;;;6265332;22;20019;-56